createdAt,value
2018-05-13T00:00:40.064Z,18.94
2018-05-13T00:01:42.953Z,18.99
2018-05-13T00:02:45.726Z,18.97
2018-05-13T00:03:48.550Z,19.01
2018-05-13T00:04:52.261Z,19.05
2018-05-13T00:05:55.046Z,19.06
2018-05-13T00:06:57.831Z,19.01
2018-05-13T00:08:00.686Z,18.94
2018-05-13T00:09:03.535Z,18.80
2018-05-13T00:10:06.320Z,18.90
2018-05-13T00:11:09.470Z,19.00
2018-05-13T00:12:12.237Z,18.97
2018-05-13T00:13:15.049Z,18.99
2018-05-13T00:14:17.811Z,19.00
2018-05-13T00:15:20.580Z,19.01
2018-05-13T00:16:23.384Z,19.05
2018-05-13T00:17:26.568Z,19.00
2018-05-13T00:18:29.338Z,18.95
2018-05-13T00:19:32.127Z,18.90
2018-05-13T00:20:34.992Z,18.89
2018-05-13T00:21:37.757Z,18.97
2018-05-13T00:22:40.560Z,18.97
2018-05-13T00:23:43.794Z,18.95
2018-05-13T00:24:46.582Z,18.96
2018-05-13T00:25:49.376Z,18.98
2018-05-13T00:26:52.150Z,18.99
2018-05-13T00:27:55.271Z,19.00
2018-05-13T00:28:58.031Z,18.93
2018-05-13T00:30:02.248Z,18.97
2018-05-13T00:31:05.475Z,19.01
2018-05-13T00:32:08.253Z,19.04
2018-05-13T00:33:11.070Z,19.09
2018-05-13T00:34:13.874Z,19.06
2018-05-13T00:35:16.641Z,19.06
2018-05-13T00:36:19.893Z,19.05
2018-05-13T00:37:23.030Z,19.06
2018-05-13T00:38:25.777Z,19.03
2018-05-13T00:39:28.587Z,18.95
2018-05-13T00:40:31.338Z,18.82
2018-05-13T00:41:34.152Z,18.72
2018-05-13T00:42:38.800Z,18.61
2018-05-13T00:43:41.619Z,18.64
2018-05-13T00:44:44.527Z,18.65
2018-05-13T00:45:47.317Z,18.58
2018-05-13T00:46:50.067Z,18.59
2018-05-13T00:47:52.869Z,18.49
2018-05-13T00:48:55.950Z,18.51
2018-05-13T00:49:59.536Z,18.46
2018-05-13T00:51:02.347Z,18.29
2018-05-13T00:52:05.165Z,18.24
2018-05-13T00:53:07.929Z,18.27
2018-05-13T00:54:10.677Z,18.31
2018-05-13T00:55:13.839Z,18.37
2018-05-13T00:56:16.572Z,18.43
2018-05-13T00:57:19.352Z,18.44
2018-05-13T00:58:22.096Z,18.35
2018-05-13T00:59:24.837Z,18.38
2018-05-13T01:00:29.162Z,18.42
2018-05-13T01:01:32.273Z,18.39
2018-05-13T01:02:35.046Z,18.40
2018-05-13T01:03:37.798Z,18.40
2018-05-13T01:04:40.562Z,18.40
2018-05-13T01:05:43.341Z,18.34
2018-05-13T01:06:46.106Z,18.30
2018-05-13T01:07:49.306Z,18.28
2018-05-13T01:08:52.071Z,18.21
2018-05-13T01:09:54.817Z,18.21
2018-05-13T01:10:58.006Z,18.18
2018-05-13T01:12:01.646Z,18.27
2018-05-13T01:13:04.440Z,18.35
2018-05-13T01:14:07.596Z,18.33
2018-05-13T01:15:10.349Z,18.14
2018-05-13T01:16:13.192Z,18.14
2018-05-13T01:17:15.951Z,18.04
2018-05-13T01:18:18.724Z,18.09
2018-05-13T01:19:21.508Z,18.18
2018-05-13T01:20:24.634Z,18.26
2018-05-13T01:21:27.382Z,18.28
2018-05-13T01:22:30.150Z,18.27
2018-05-13T01:23:32.915Z,18.30
2018-05-13T01:24:35.676Z,18.24
2018-05-13T01:25:38.462Z,18.17
2018-05-13T01:26:41.654Z,18.24
2018-05-13T01:27:44.405Z,18.20
2018-05-13T01:28:47.162Z,18.14
2018-05-13T01:29:49.906Z,17.89
2018-05-13T01:30:52.643Z,17.89
2018-05-13T01:31:55.443Z,17.96
2018-05-13T01:32:58.676Z,17.99
2018-05-13T01:34:01.446Z,18.04
2018-05-13T01:35:04.223Z,17.98
2018-05-13T01:36:07.001Z,17.83
2018-05-13T01:37:09.828Z,17.82
2018-05-13T01:38:12.584Z,17.85
2018-05-13T01:39:15.726Z,17.85
2018-05-13T01:40:18.528Z,17.91
2018-05-13T01:41:21.316Z,17.82
2018-05-13T01:42:24.128Z,17.70
2018-05-13T01:43:26.927Z,17.71
2018-05-13T01:44:29.724Z,17.71
2018-05-13T01:45:32.996Z,17.67
2018-05-13T01:46:35.772Z,17.63
2018-05-13T01:47:38.552Z,17.58
2018-05-13T01:48:41.532Z,17.64
2018-05-13T01:49:44.331Z,17.71
2018-05-13T01:50:47.095Z,17.78
2018-05-13T01:51:50.217Z,17.71
2018-05-13T01:52:53.022Z,17.59
2018-05-13T01:53:55.820Z,17.63
2018-05-13T01:54:58.585Z,17.65
2018-05-13T01:56:01.364Z,17.35
2018-05-13T01:57:06.063Z,17.30
2018-05-13T01:58:09.368Z,17.11
2018-05-13T01:59:12.148Z,16.44
2018-05-13T02:00:15.339Z,16.31
2018-05-13T02:01:18.129Z,16.28
2018-05-13T02:02:20.912Z,16.11
2018-05-13T02:03:23.701Z,16.13
2018-05-13T02:04:26.940Z,16.09
2018-05-13T02:05:29.807Z,16.01
2018-05-13T02:06:32.614Z,16.03
2018-05-13T02:07:35.452Z,15.97
2018-05-13T02:08:38.271Z,15.75
2018-05-13T02:09:41.216Z,15.27
2018-05-13T02:10:44.468Z,15.54
2018-05-13T02:11:47.258Z,15.57
2018-05-13T02:12:50.119Z,15.73
2018-05-13T02:13:53.201Z,15.98
2018-05-13T02:14:56.008Z,16.12
2018-05-13T02:15:58.805Z,15.94
2018-05-13T02:17:02.074Z,15.73
2018-05-13T02:18:04.859Z,15.49
2018-05-13T02:19:07.620Z,15.36
2018-05-13T02:20:10.457Z,15.62
2018-05-13T02:21:13.246Z,15.81
2018-05-13T02:22:16.089Z,15.84
2018-05-13T02:23:19.303Z,16.06
2018-05-13T02:24:22.063Z,16.30
2018-05-13T02:25:24.920Z,16.50
2018-05-13T02:26:27.696Z,16.64
2018-05-13T02:27:30.482Z,16.49
2018-05-13T02:28:33.292Z,16.42
2018-05-13T02:29:36.556Z,16.30
2018-05-13T02:30:39.372Z,16.16
2018-05-13T02:31:42.165Z,16.15
2018-05-13T02:32:44.945Z,16.23
2018-05-13T02:33:47.701Z,16.34
2018-05-13T02:34:50.515Z,16.44
2018-05-13T02:35:53.816Z,16.45
2018-05-13T02:36:57.103Z,16.49
2018-05-13T02:37:59.902Z,16.54
2018-05-13T02:39:02.726Z,16.62
2018-05-13T02:40:05.507Z,16.70
2018-05-13T02:41:08.307Z,16.65
2018-05-13T02:42:11.405Z,16.57
2018-05-13T02:43:14.237Z,16.60
2018-05-13T02:44:18.256Z,16.73
2018-05-13T02:45:22.077Z,16.78
2018-05-13T02:46:24.864Z,16.74
2018-05-13T02:47:27.647Z,16.82
2018-05-13T02:48:31.015Z,16.94
2018-05-13T02:49:33.788Z,17.05
2018-05-13T02:50:36.590Z,17.12
2018-05-13T02:51:39.365Z,17.11
2018-05-13T02:52:42.890Z,17.16
2018-05-13T02:53:45.682Z,17.26
2018-05-13T02:54:48.775Z,17.35
2018-05-13T02:55:51.672Z,17.41
2018-05-13T02:56:54.454Z,17.47
2018-05-13T02:57:57.269Z,17.53
2018-05-13T02:59:00.075Z,17.58
2018-05-13T03:00:02.857Z,17.65
2018-05-13T03:01:06.030Z,17.67
2018-05-13T03:02:08.815Z,17.69
2018-05-13T03:03:11.589Z,17.73
2018-05-13T03:04:14.408Z,17.76
2018-05-13T03:05:17.208Z,17.79
2018-05-13T03:06:19.990Z,17.61
2018-05-13T03:07:22.782Z,17.67
2018-05-13T03:08:25.549Z,17.75
2018-05-13T03:09:29.152Z,17.78
2018-05-13T03:10:31.923Z,17.84
2018-05-13T03:11:34.716Z,17.83
2018-05-13T03:12:37.823Z,17.82
2018-05-13T03:13:40.703Z,17.84
2018-05-13T03:14:43.476Z,17.79
2018-05-13T03:15:46.255Z,17.76
2018-05-13T03:16:49.438Z,17.82
2018-05-13T03:17:52.215Z,17.86
2018-05-13T03:18:55.475Z,17.80
2018-05-13T03:19:58.326Z,17.82
2018-05-13T03:21:01.093Z,17.83
2018-05-13T03:22:03.875Z,17.83
2018-05-13T03:23:06.656Z,17.84
2018-05-13T03:24:09.429Z,17.85
2018-05-13T03:25:12.544Z,17.86
2018-05-13T03:26:16.347Z,17.88
2018-05-13T03:27:19.098Z,17.89
2018-05-13T03:28:21.877Z,17.90
2018-05-13T03:29:24.666Z,17.86
2018-05-13T03:30:27.459Z,17.72
2018-05-13T03:31:30.609Z,17.54
2018-05-13T03:32:33.609Z,17.48
2018-05-13T03:33:36.392Z,16.92
2018-05-13T03:34:39.299Z,16.02
2018-05-13T03:35:42.096Z,15.75
2018-05-13T03:36:44.893Z,16.10
2018-05-13T03:37:48.030Z,16.36
2018-05-13T03:38:50.804Z,16.54
2018-05-13T03:39:53.583Z,16.64
2018-05-13T03:40:56.409Z,16.71
2018-05-13T03:41:59.178Z,16.82
2018-05-13T03:43:01.976Z,16.92
2018-05-13T03:44:05.396Z,17.01
2018-05-13T03:45:08.282Z,17.04
2018-05-13T03:46:11.436Z,17.13
2018-05-13T03:47:14.262Z,17.16
2018-05-13T03:48:17.036Z,17.21
2018-05-13T03:49:19.817Z,16.85
2018-05-13T03:50:22.945Z,16.64
2018-05-13T03:51:25.713Z,16.84
2018-05-13T03:52:28.503Z,16.95
2018-05-13T03:53:31.300Z,16.58
2018-05-13T03:54:34.193Z,16.09
2018-05-13T03:55:36.977Z,15.73
2018-05-13T03:56:40.266Z,15.47
2018-05-13T03:57:43.055Z,15.68
2018-05-13T03:58:45.826Z,15.98
2018-05-13T03:59:48.645Z,16.21
2018-05-13T04:00:51.428Z,16.31
2018-05-13T04:01:54.187Z,16.42
2018-05-13T04:02:57.284Z,16.56
2018-05-13T04:04:00.512Z,16.67
2018-05-13T04:05:03.682Z,16.75
2018-05-13T04:06:06.657Z,16.83
2018-05-13T04:07:10.026Z,16.90
2018-05-13T04:08:12.855Z,16.97
2018-05-13T04:09:16.480Z,17.04
2018-05-13T04:10:20.339Z,17.07
2018-05-13T04:11:23.118Z,17.09
2018-05-13T04:12:25.880Z,17.10
2018-05-13T04:13:28.716Z,17.13
2018-05-13T04:14:31.494Z,17.17
2018-05-13T04:15:34.658Z,17.19
2018-05-13T04:16:37.448Z,17.25
2018-05-13T04:17:40.240Z,17.27
2018-05-13T04:18:43.021Z,17.32
2018-05-13T04:19:45.797Z,17.32
2018-05-13T04:20:48.595Z,17.36
2018-05-13T04:21:51.887Z,17.39
2018-05-13T04:22:54.675Z,17.39
2018-05-13T04:23:57.453Z,17.38
2018-05-13T04:25:00.237Z,17.38
2018-05-13T04:26:03.007Z,17.37
2018-05-13T04:27:06.480Z,17.33
2018-05-13T04:28:09.725Z,17.35
2018-05-13T04:29:12.505Z,17.33
2018-05-13T04:30:15.284Z,17.38
2018-05-13T04:31:18.080Z,17.38
2018-05-13T04:32:20.870Z,17.42
2018-05-13T04:33:23.652Z,17.23
2018-05-13T04:34:27.025Z,17.28
2018-05-13T04:35:30.281Z,17.34
2018-05-13T04:36:33.074Z,17.40
2018-05-13T04:37:35.838Z,17.38
2018-05-13T04:38:38.625Z,17.33
2018-05-13T04:39:41.416Z,17.27
2018-05-13T04:40:44.584Z,17.29
2018-05-13T04:41:47.355Z,17.34
2018-05-13T04:42:50.167Z,17.31
2018-05-13T04:43:52.945Z,17.36
2018-05-13T04:44:55.743Z,17.43
2018-05-13T04:46:01.302Z,17.49
2018-05-13T04:47:05.615Z,17.41
2018-05-13T04:48:08.546Z,17.47
2018-05-13T04:49:11.430Z,17.44
2018-05-13T04:50:14.503Z,17.41
2018-05-13T04:51:17.273Z,17.48
2018-05-13T04:52:20.064Z,17.44
2018-05-13T04:53:23.307Z,17.38
2018-05-13T04:54:26.031Z,17.33
2018-05-13T04:55:28.812Z,17.10
2018-05-13T04:56:31.598Z,16.48
2018-05-13T04:57:34.377Z,16.21
2018-05-13T04:58:37.949Z,16.34
2018-05-13T04:59:41.065Z,16.49
2018-05-13T05:00:43.847Z,16.75
2018-05-13T05:01:46.635Z,16.84
2018-05-13T05:02:49.415Z,16.93
2018-05-13T05:03:52.188Z,17.09
2018-05-13T05:04:54.969Z,17.19
2018-05-13T05:05:58.067Z,17.29
2018-05-13T05:07:00.875Z,17.36
2018-05-13T05:08:03.652Z,17.42
2018-05-13T05:09:06.453Z,17.46
2018-05-13T05:10:09.224Z,17.54
2018-05-13T05:11:11.983Z,17.59
2018-05-13T05:12:15.273Z,17.68
2018-05-13T05:13:18.074Z,17.73
2018-05-13T05:14:20.846Z,17.73
2018-05-13T05:15:25.645Z,17.72
2018-05-13T05:16:28.431Z,17.59
2018-05-13T05:17:31.206Z,17.29
2018-05-13T05:18:34.335Z,17.28
2018-05-13T05:19:37.118Z,17.26
2018-05-13T05:20:39.904Z,17.27
2018-05-13T05:21:42.686Z,17.38
2018-05-13T05:22:45.459Z,17.42
2018-05-13T05:23:48.273Z,17.48
2018-05-13T05:24:51.524Z,17.50
2018-05-13T05:25:54.335Z,17.59
2018-05-13T05:26:57.093Z,17.34
2018-05-13T05:27:59.933Z,17.08
2018-05-13T05:29:02.735Z,16.59
2018-05-13T05:30:05.554Z,16.46
2018-05-13T05:31:08.797Z,16.46
2018-05-13T05:32:11.603Z,16.51
2018-05-13T05:33:14.436Z,16.07
2018-05-13T05:34:17.363Z,16.01
2018-05-13T05:35:20.168Z,15.99
2018-05-13T05:36:23.033Z,15.90
2018-05-13T05:37:26.237Z,16.14
2018-05-13T05:38:29.048Z,16.27
2018-05-13T05:39:31.824Z,16.36
2018-05-13T05:40:34.614Z,16.52
2018-05-13T05:41:37.417Z,16.55
2018-05-13T05:42:40.232Z,16.49
2018-05-13T05:43:43.486Z,16.46
2018-05-13T05:44:46.305Z,16.37
2018-05-13T05:45:49.075Z,16.24
2018-05-13T05:46:51.868Z,16.22
2018-05-13T05:47:54.633Z,16.22
2018-05-13T05:48:57.395Z,16.23
2018-05-13T05:50:00.515Z,16.29
2018-05-13T05:51:03.293Z,16.40
2018-05-13T05:52:06.086Z,16.55
2018-05-13T05:53:08.884Z,16.66
2018-05-13T05:54:11.669Z,16.77
2018-05-13T05:55:14.446Z,16.86
2018-05-13T05:56:17.559Z,17.08
2018-05-13T05:57:20.352Z,17.15
2018-05-13T05:58:23.134Z,17.24
2018-05-13T05:59:25.927Z,17.34
2018-05-13T06:00:28.778Z,17.43
2018-05-13T06:01:31.552Z,17.51
2018-05-13T06:02:34.793Z,17.52
2018-05-13T06:03:37.566Z,17.66
2018-05-13T06:04:40.320Z,17.79
2018-05-13T06:05:43.138Z,17.89
2018-05-13T06:06:45.930Z,18.04
2018-05-13T06:07:48.736Z,18.20
2018-05-13T06:08:51.808Z,18.24
2018-05-13T06:09:54.572Z,18.28
2018-05-13T06:10:57.405Z,18.29
2018-05-13T06:12:00.164Z,18.31
2018-05-13T06:13:02.983Z,18.09
2018-05-13T06:14:05.874Z,18.14
2018-05-13T06:15:09.064Z,18.29
2018-05-13T06:16:11.857Z,18.44
2018-05-13T06:17:14.615Z,18.62
2018-05-13T06:18:17.391Z,18.77
2018-05-13T06:19:20.227Z,18.86
2018-05-13T06:20:22.972Z,19.01
2018-05-13T06:21:26.109Z,19.14
2018-05-13T06:22:28.884Z,19.23
2018-05-13T06:23:31.681Z,19.22
2018-05-13T06:24:34.467Z,18.92
2018-05-13T06:25:37.280Z,18.86
2018-05-13T06:26:40.020Z,19.01
2018-05-13T06:27:43.115Z,19.18
2018-05-13T06:28:45.891Z,19.17
2018-05-13T06:29:48.679Z,19.21
2018-05-13T06:30:51.468Z,19.14
2018-05-13T06:31:54.409Z,19.13
2018-05-13T06:32:57.147Z,19.15
2018-05-13T06:34:00.398Z,19.28
2018-05-13T06:35:03.187Z,19.40
2018-05-13T06:36:05.991Z,19.48
2018-05-13T06:37:08.761Z,19.47
2018-05-13T06:38:11.571Z,19.47
2018-05-13T06:39:14.387Z,19.34
2018-05-13T06:40:17.693Z,19.38
2018-05-13T06:41:20.547Z,19.14
2018-05-13T06:42:23.362Z,19.34
2018-05-13T06:43:26.167Z,19.47
2018-05-13T06:44:28.965Z,19.57
2018-05-13T06:45:31.739Z,19.65
2018-05-13T06:46:34.914Z,19.75
2018-05-13T06:47:37.752Z,19.64
2018-05-13T06:48:40.539Z,19.75
2018-05-13T06:49:43.334Z,19.90
2018-05-13T06:50:46.168Z,19.93
2018-05-13T06:51:48.939Z,20.04
2018-05-13T06:52:52.113Z,20.11
2018-05-13T06:53:54.915Z,20.05
2018-05-13T06:54:57.699Z,20.10
2018-05-13T06:56:00.534Z,20.22
2018-05-13T06:57:03.358Z,20.28
2018-05-13T06:58:06.175Z,20.34
2018-05-13T06:59:09.337Z,20.40
2018-05-13T07:00:12.085Z,20.50
2018-05-13T07:01:14.956Z,20.60
2018-05-13T07:02:17.749Z,20.62
2018-05-13T07:03:20.511Z,20.50
2018-05-13T07:04:23.762Z,20.33
2018-05-13T07:05:26.549Z,20.37
2018-05-13T07:06:29.339Z,20.09
2018-05-13T07:07:32.127Z,19.61
2018-05-13T07:08:35.275Z,19.41
2018-05-13T07:09:38.041Z,19.33
2018-05-13T07:10:41.148Z,19.32
2018-05-13T07:11:43.913Z,18.90
2018-05-13T07:12:46.727Z,18.74
2018-05-13T07:13:49.531Z,18.98
2018-05-13T07:14:52.342Z,19.27
2018-05-13T07:15:55.132Z,19.32
2018-05-13T07:16:58.385Z,19.38
2018-05-13T07:18:01.187Z,19.44
2018-05-13T07:19:03.989Z,19.44
2018-05-13T07:20:06.813Z,19.39
2018-05-13T07:21:09.650Z,19.36
2018-05-13T07:22:12.439Z,19.28
2018-05-13T07:23:15.631Z,19.33
2018-05-13T07:24:18.442Z,19.38
2018-05-13T07:25:21.317Z,19.52
2018-05-13T07:26:24.186Z,19.54
2018-05-13T07:27:27.042Z,19.61
2018-05-13T07:28:29.815Z,19.62
2018-05-13T07:29:33.144Z,19.63
2018-05-13T07:30:35.941Z,19.71
2018-05-13T07:31:38.715Z,19.98
2018-05-13T07:32:41.513Z,19.79
2018-05-13T07:33:44.312Z,20.09
2018-05-13T07:34:47.113Z,20.34
2018-05-13T07:35:50.188Z,20.53
2018-05-13T07:36:52.987Z,20.84
2018-05-13T07:37:55.829Z,21.10
2018-05-13T07:38:58.670Z,21.15
2018-05-13T07:40:01.474Z,21.18
2018-05-13T07:41:04.262Z,21.39
2018-05-13T07:42:07.578Z,21.20
2018-05-13T07:43:10.367Z,21.37
2018-05-13T07:44:13.172Z,21.67
2018-05-13T07:45:15.991Z,21.92
2018-05-13T07:46:19.364Z,22.06
2018-05-13T07:47:22.811Z,22.33
2018-05-13T07:48:26.060Z,22.61
2018-05-13T07:49:28.979Z,21.89
2018-05-13T07:50:31.779Z,21.70
2018-05-13T07:51:35.019Z,22.09
2018-05-13T07:52:40.347Z,22.27
2018-05-13T07:53:43.379Z,22.39
2018-05-13T07:54:46.567Z,22.50
2018-05-13T07:55:49.430Z,22.60
2018-05-13T07:56:52.233Z,22.62
2018-05-13T07:57:55.071Z,22.60
2018-05-13T07:58:58.063Z,22.62
2018-05-13T08:00:00.843Z,22.63
2018-05-13T08:01:04.050Z,22.59
2018-05-13T08:02:06.852Z,22.58
2018-05-13T08:03:09.691Z,22.56
2018-05-13T08:04:12.931Z,22.50
2018-05-13T08:05:15.761Z,22.46
2018-05-13T08:06:18.624Z,22.53
2018-05-13T08:07:21.867Z,22.56
2018-05-13T08:08:24.697Z,22.59
2018-05-13T08:09:27.532Z,22.56
2018-05-13T08:10:30.370Z,22.64
2018-05-13T08:11:33.271Z,22.25
2018-05-13T08:12:36.052Z,22.20
2018-05-13T08:13:39.355Z,22.37
2018-05-13T08:14:42.131Z,22.46
2018-05-13T08:15:44.955Z,22.41
2018-05-13T08:16:47.785Z,22.44
2018-05-13T08:17:50.564Z,22.43
2018-05-13T08:18:53.351Z,22.41
2018-05-13T08:19:56.582Z,22.48
2018-05-13T08:21:00.452Z,22.26
2018-05-13T08:22:03.871Z,22.35
2018-05-13T08:23:07.566Z,22.41
2018-05-13T08:24:11.196Z,22.27
2018-05-13T08:25:14.760Z,22.32
2018-05-13T08:26:18.484Z,22.46
2018-05-13T08:27:22.297Z,22.50
2018-05-13T08:28:26.562Z,22.58
2018-05-13T08:29:29.932Z,22.60
2018-05-13T08:30:33.245Z,22.72
2018-05-13T08:31:37.183Z,22.95
2018-05-13T08:32:40.554Z,23.28
2018-05-13T08:33:43.941Z,23.59
2018-05-13T08:34:47.429Z,23.57
2018-05-13T08:35:51.576Z,23.76
2018-05-13T08:36:55.335Z,24.06
2018-05-13T08:37:58.754Z,23.91
2018-05-13T08:39:02.303Z,24.07
2018-05-13T08:40:05.733Z,24.12
2018-05-13T08:41:09.376Z,24.04
2018-05-13T08:42:12.835Z,23.86
2018-05-13T08:43:15.705Z,23.96
2018-05-13T08:44:18.878Z,23.93
2018-05-13T08:45:21.680Z,23.92
2018-05-13T08:46:24.498Z,23.77
2018-05-13T08:47:27.368Z,23.38
2018-05-13T08:48:30.151Z,23.48
2018-05-13T08:49:32.967Z,23.58
2018-05-13T08:50:36.292Z,23.59
2018-05-13T08:51:39.088Z,23.53
2018-05-13T08:52:42.023Z,23.63
2018-05-13T08:53:44.839Z,23.54
2018-05-13T08:54:47.684Z,23.50
2018-05-13T08:55:50.496Z,23.29
2018-05-13T08:56:53.727Z,23.33
2018-05-13T08:57:56.702Z,23.39
2018-05-13T08:58:59.634Z,23.46
2018-05-13T09:00:02.441Z,23.67
2018-05-13T09:01:05.331Z,23.41
2018-05-13T09:02:08.110Z,23.39
2018-05-13T09:03:11.430Z,23.53
2018-05-13T09:04:14.224Z,23.25
2018-05-13T09:05:16.995Z,23.39
2018-05-13T09:06:19.804Z,23.55
2018-05-13T09:07:22.670Z,23.26
2018-05-13T09:08:25.440Z,22.94
2018-05-13T09:09:28.640Z,22.92
2018-05-13T09:10:31.660Z,23.05
2018-05-13T09:11:34.516Z,23.25
2018-05-13T09:12:37.367Z,23.48
2018-05-13T09:13:40.145Z,23.81
2018-05-13T09:14:42.960Z,23.81
2018-05-13T09:15:46.073Z,23.73
2018-05-13T09:16:48.886Z,23.66
2018-05-13T09:17:51.666Z,23.17
2018-05-13T09:18:54.573Z,22.15
2018-05-13T09:19:57.366Z,21.85
2018-05-13T09:21:00.234Z,22.14
2018-05-13T09:22:03.185Z,22.21
2018-05-13T09:23:05.997Z,22.60
2018-05-13T09:24:08.806Z,22.91
2018-05-13T09:25:11.607Z,23.02
2018-05-13T09:26:14.455Z,22.94
2018-05-13T09:27:17.680Z,22.92
2018-05-13T09:28:20.678Z,22.97
2018-05-13T09:29:23.626Z,23.05
2018-05-13T09:30:26.468Z,22.90
2018-05-13T09:31:29.231Z,22.37
2018-05-13T09:32:32.117Z,21.40
2018-05-13T09:33:35.298Z,21.29
2018-05-13T09:34:38.080Z,21.10
2018-05-13T09:35:40.876Z,20.88
2018-05-13T09:36:43.697Z,20.84
2018-05-13T09:37:46.527Z,20.38
2018-05-13T09:38:49.315Z,19.96
2018-05-13T09:39:52.591Z,19.52
2018-05-13T09:40:55.359Z,19.69
2018-05-13T09:41:58.147Z,19.81
2018-05-13T09:43:00.952Z,19.85
2018-05-13T09:44:03.758Z,19.42
2018-05-13T09:45:06.561Z,19.34
2018-05-13T09:46:09.699Z,19.16
2018-05-13T09:47:12.479Z,19.01
2018-05-13T09:48:15.387Z,19.18
2018-05-13T09:49:18.198Z,18.93
2018-05-13T09:50:20.987Z,18.72
2018-05-13T09:51:23.862Z,18.53
2018-05-13T09:52:26.966Z,18.00
2018-05-13T09:53:29.815Z,18.24
2018-05-13T09:54:32.602Z,18.15
2018-05-13T09:55:35.403Z,17.90
2018-05-13T09:56:38.281Z,17.78
2018-05-13T09:57:41.104Z,17.55
2018-05-13T09:58:44.385Z,17.59
2018-05-13T09:59:47.181Z,17.75
2018-05-13T10:00:49.991Z,17.54
2018-05-13T10:01:52.820Z,17.57
2018-05-13T10:02:55.599Z,17.66
2018-05-13T10:03:58.390Z,17.63
2018-05-13T10:05:01.723Z,17.53
2018-05-13T10:06:04.519Z,17.42
2018-05-13T10:07:07.340Z,17.18
2018-05-13T10:08:10.198Z,16.83
2018-05-13T10:09:13.068Z,16.73
2018-05-13T10:10:15.937Z,16.82
2018-05-13T10:11:19.156Z,16.76
2018-05-13T10:12:22.587Z,16.73
2018-05-13T10:13:25.410Z,16.67
2018-05-13T10:14:28.199Z,16.69
2018-05-13T10:15:30.986Z,16.62
2018-05-13T10:16:33.878Z,16.72
2018-05-13T10:17:37.103Z,16.90
2018-05-13T10:18:39.912Z,16.64
2018-05-13T10:19:42.739Z,16.59
2018-05-13T10:20:45.567Z,16.46
2018-05-13T10:21:48.358Z,16.37
2018-05-13T10:22:51.195Z,16.28
2018-05-13T10:23:54.693Z,16.24
2018-05-13T10:24:58.763Z,16.17
2018-05-13T10:26:01.871Z,16.14
2018-05-13T10:27:04.743Z,16.07
2018-05-13T10:28:07.821Z,15.92
2018-05-13T10:29:10.722Z,15.75
2018-05-13T10:30:13.907Z,15.36
2018-05-13T10:31:16.751Z,15.14
2018-05-13T10:32:19.665Z,15.04
2018-05-13T10:33:22.524Z,14.97
2018-05-13T10:34:25.470Z,14.98
2018-05-13T10:35:28.373Z,14.95
2018-05-13T10:36:31.628Z,14.89
2018-05-13T10:37:34.531Z,15.06
2018-05-13T10:38:37.344Z,15.18
2018-05-13T10:39:40.297Z,15.28
2018-05-13T10:40:43.171Z,15.21
2018-05-13T10:41:46.044Z,15.17
2018-05-13T10:42:49.497Z,15.18
2018-05-13T10:43:52.357Z,15.59
2018-05-13T10:44:55.302Z,15.85
2018-05-13T10:45:58.220Z,15.94
2018-05-13T10:47:01.196Z,16.05
2018-05-13T10:48:04.091Z,16.19
2018-05-13T10:49:07.318Z,16.20
2018-05-13T10:50:10.233Z,16.44
2018-05-13T10:51:13.186Z,16.58
2018-05-13T10:52:16.226Z,16.74
2018-05-13T10:53:19.159Z,16.84
2018-05-13T10:54:22.130Z,16.88
2018-05-13T10:55:25.444Z,17.04
2018-05-13T10:56:31.064Z,16.95
2018-05-13T10:57:33.959Z,17.26
2018-05-13T10:58:36.855Z,16.96
2018-05-13T10:59:39.724Z,17.32
2018-05-13T11:00:42.602Z,17.27
2018-05-13T11:01:45.846Z,17.77
2018-05-13T11:02:48.999Z,18.14
2018-05-13T11:03:51.938Z,18.49
2018-05-13T11:04:54.782Z,18.83
2018-05-13T11:05:57.753Z,19.12
2018-05-13T11:07:00.724Z,18.98
2018-05-13T11:08:03.576Z,18.93
2018-05-13T11:09:06.506Z,19.03
2018-05-13T11:10:09.398Z,19.19
2018-05-13T11:11:12.341Z,19.39
2018-05-13T11:12:15.173Z,19.55
2018-05-13T11:13:18.557Z,19.79
2018-05-13T11:14:21.548Z,19.53
2018-05-13T11:15:24.345Z,19.44
2018-05-13T11:16:27.191Z,19.19
2018-05-13T11:17:29.965Z,19.17
2018-05-13T11:18:32.975Z,19.10
2018-05-13T11:19:36.057Z,19.35
2018-05-13T11:20:38.942Z,19.12
2018-05-13T11:21:41.755Z,19.32
2018-05-13T11:22:44.744Z,19.56
2018-05-13T11:23:47.585Z,19.46
2018-05-13T11:24:50.406Z,19.53
2018-05-13T11:25:53.536Z,19.69
2018-05-13T11:26:56.387Z,19.69
2018-05-13T11:27:59.222Z,19.84
2018-05-13T11:29:02.032Z,19.57
2018-05-13T11:30:04.936Z,19.48
2018-05-13T11:31:07.781Z,19.22
2018-05-13T11:32:11.025Z,18.95
2018-05-13T11:33:13.826Z,18.39
2018-05-13T11:34:16.663Z,18.34
2018-05-13T11:35:19.867Z,18.20
2018-05-13T11:36:22.976Z,18.22
2018-05-13T11:37:26.275Z,18.42
2018-05-13T11:38:29.525Z,18.67
2018-05-13T11:39:32.326Z,18.71
2018-05-13T11:40:35.134Z,18.48
2018-05-13T11:41:37.928Z,18.34
2018-05-13T11:42:40.869Z,18.34
2018-05-13T11:43:43.642Z,18.36
2018-05-13T11:44:46.880Z,18.06
2018-05-13T11:45:49.786Z,17.97
2018-05-13T11:46:52.701Z,17.92
2018-05-13T11:47:55.549Z,18.04
2018-05-13T11:48:58.391Z,17.90
2018-05-13T11:50:01.187Z,17.73
2018-05-13T11:51:04.554Z,17.84
2018-05-13T11:52:07.450Z,17.75
2018-05-13T11:53:10.275Z,18.23
2018-05-13T11:54:13.121Z,18.14
2018-05-13T11:55:15.933Z,18.16
2018-05-13T11:56:18.775Z,18.02
2018-05-13T11:57:21.975Z,17.80
2018-05-13T11:58:24.729Z,17.62
2018-05-13T11:59:27.557Z,17.76
2018-05-13T12:00:30.351Z,17.75
2018-05-13T12:01:33.167Z,17.70
2018-05-13T12:02:36.398Z,17.57
2018-05-13T12:03:39.622Z,17.38
2018-05-13T12:04:42.951Z,17.33
2018-05-13T12:07:12.979Z,17.59
2018-05-13T12:20:50.113Z,17.92
2018-05-13T12:24:56.836Z,18.33
2018-05-13T12:26:00.003Z,18.22
2018-05-13T12:27:02.962Z,17.81
2018-05-13T12:28:06.396Z,17.78
2018-05-13T12:29:09.381Z,18.01
2018-05-13T12:30:12.197Z,17.72
2018-05-13T12:31:15.014Z,17.62
2018-05-13T12:32:17.808Z,17.78
2018-05-13T12:33:20.612Z,17.77
2018-05-13T12:34:23.898Z,17.61
2018-05-13T12:35:26.710Z,17.56
2018-05-13T12:36:29.486Z,17.78
2018-05-13T12:37:32.432Z,17.92
2018-05-13T12:38:35.410Z,17.66
2018-05-13T12:39:38.212Z,17.69
2018-05-13T12:40:41.285Z,17.67
2018-05-13T12:41:44.147Z,17.64
2018-05-13T12:42:47.134Z,17.75
2018-05-13T12:43:49.984Z,18.03
2018-05-13T12:44:53.060Z,18.32
2018-05-13T12:45:55.893Z,18.22
2018-05-13T12:46:59.134Z,18.26
2018-05-13T12:48:01.955Z,18.23
2018-05-13T12:49:04.804Z,18.32
2018-05-13T12:50:07.957Z,18.49
2018-05-13T12:51:10.985Z,18.56
2018-05-13T12:52:13.757Z,18.33
2018-05-13T12:53:16.996Z,18.21
2018-05-13T12:54:19.816Z,18.04
2018-05-13T12:55:22.612Z,17.98
2018-05-13T12:56:25.417Z,18.17
2018-05-13T12:57:28.235Z,18.18
2018-05-13T12:58:31.616Z,18.04
2018-05-13T12:59:34.853Z,17.71
2018-05-13T13:00:37.624Z,17.64
2018-05-13T13:01:40.441Z,17.39
2018-05-13T13:02:43.229Z,17.49
2018-05-13T13:03:46.176Z,17.39
2018-05-13T13:04:49.007Z,17.47
2018-05-13T13:05:52.334Z,17.61
2018-05-13T13:06:55.228Z,17.68
2018-05-13T13:07:58.026Z,17.59
2018-05-13T13:09:01.446Z,17.79
2018-05-13T13:10:04.275Z,17.65
2018-05-13T13:11:07.149Z,17.85
2018-05-13T13:12:10.322Z,17.96
2018-05-13T13:13:13.237Z,18.15
2018-05-13T13:14:16.036Z,18.13
2018-05-13T13:15:18.812Z,18.15
2018-05-13T13:16:22.695Z,18.02
2018-05-13T13:17:25.499Z,18.25
2018-05-13T13:18:28.723Z,18.22
2018-05-13T13:19:31.553Z,18.38
2018-05-13T13:20:34.317Z,18.67
2018-05-13T13:21:37.220Z,18.68
2018-05-13T13:22:40.182Z,19.04
2018-05-13T13:23:43.233Z,19.13
2018-05-13T13:24:46.480Z,19.35
2018-05-13T13:25:51.422Z,19.47
2018-05-13T13:26:54.289Z,19.41
2018-05-13T13:27:57.102Z,19.29
2018-05-13T13:28:59.904Z,19.34
2018-05-13T13:30:02.698Z,19.83
2018-05-13T13:31:05.875Z,20.42
2018-05-13T13:32:08.664Z,20.71
2018-05-13T13:33:11.521Z,20.75
2018-05-13T13:34:14.306Z,20.50
2018-05-13T13:35:17.103Z,20.97
2018-05-13T13:36:19.972Z,21.29
2018-05-13T13:37:23.868Z,21.24
2018-05-13T13:38:26.650Z,20.51
2018-05-13T13:39:29.762Z,20.59
2018-05-13T13:40:32.578Z,20.86
2018-05-13T13:41:35.444Z,20.73
2018-05-13T13:42:38.276Z,20.68
2018-05-13T13:43:41.522Z,20.42
2018-05-13T13:44:44.323Z,20.91
2018-05-13T13:45:47.088Z,21.59
2018-05-13T13:46:50.063Z,22.04
2018-05-13T13:47:52.936Z,22.34